This is the latest recevied weather packets stored in our database for station/object AF5AA. If no packets are shown the sender has not sent any weather packets the latest 10 day(s).
| Time | Temp. | Humidity | Pressure | Rain* | Wind** | Luminosity | Snow |
|---|---|---|---|---|---|---|---|
| 1777435817 | 25.56° C | 85% | 1010.7 hPa | 0 mm | - | 0 W/m² | - |
| 1777435512 | 26.11° C | 85% | 1010.4 hPa | 0 mm | - | 0 W/m² | - |
| 1777435208 | 26.11° C | 84% | 1010.4 hPa | 0 mm | - | 0 W/m² | - |
| 1777434907 | 26.67° C | 82% | 1010.5 hPa | 0 mm | - | 0 W/m² | - |
| 1777434603 | 26.67° C | 82% | 1010.2 hPa | 0 mm | - | 0 W/m² | - |
| 1777434298 | 26.67° C | 82% | 1010 hPa | 0 mm | - | 0 W/m² | - |
| 1777433996 | 26.67° C | 82% | 1009.9 hPa | 0 mm | - | 0 W/m² | - |
| 1777433693 | 26.67° C | 82% | 1009.4 hPa | 0 mm | - | 0 W/m² | - |
| 1777433388 | 26.67° C | 82% | 1009.3 hPa | 0 mm | - | 0 W/m² | - |
| 1777433084 | 26.67° C | 82% | 1008.9 hPa | 0 mm | - | 0 W/m² | - |
| 1777432780 | 26.67° C | 81% | 1009 hPa | 0 mm | - | 0 W/m² | - |
| 1777432476 | 27.22° C | 80% | 1008.5 hPa | 0 mm | - | 0 W/m² | - |
| 1777432172 | 26.67° C | 80% | 1008.6 hPa | 0 mm | - | 0 W/m² | - |
| 1777431871 | 27.22° C | 81% | 1008.3 hPa | 0 mm | - | 0 W/m² | - |
| 1777431568 | 27.22° C | 80% | 1008.2 hPa | 0 mm | - | 0 W/m² | - |
| 1777431264 | 26.67° C | 82% | 1008.6 hPa | 0 mm | - | 0 W/m² | - |
| 1777430960 | 26.11° C | 84% | 1008.6 hPa | 0 mm | - | 0 W/m² | - |
| 1777430656 | 26.11° C | 87% | 1008.4 hPa | 0 mm | - | 0 W/m² | - |
| 1777430352 | 25.56° C | 88% | 1008.8 hPa | 0 mm | - | 0 W/m² | - |
| 1777430047 | 25° C | 90% | 1008.7 hPa | 0 mm | - | 0 W/m² | - |
| 1777429743 | 25° C | 92% | 1008.8 hPa | 0 mm | - | 0 W/m² | - |
| 1777429439 | 25° C | 93% | 1009 hPa | 0 mm | - | 0 W/m² | - |
| 1777429135 | 25° C | 94% | 1009.8 hPa | 0 mm | - | 0 W/m² | - |
| 1777428832 | 25° C | 94% | 1010 hPa | 0 mm | - | 0 W/m² | - |
| 1777428528 | 25° C | 94% | 1010.1 hPa | 0 mm | - | 0 W/m² | - |
* Rain latest hour (hover to see other rain measurements)
** Current wind speed in m/s (hover to see current wind gust speed)